sensor_id;sensor_type;location;lat;lon;timestamp;temperature;humidity
23291;DHT22;11814;44.686;10.842;2023-02-23T00:01:43;11.50;99.90
23291;DHT22;11814;44.686;10.842;2023-02-23T00:04:09;11.50;99.90
23291;DHT22;11814;44.686;10.842;2023-02-23T00:06:36;11.50;99.90
23291;DHT22;11814;44.686;10.842;2023-02-23T00:09:03;11.50;99.90
23291;DHT22;11814;44.686;10.842;2023-02-23T00:11:56;11.50;99.90
23291;DHT22;11814;44.686;10.842;2023-02-23T00:14:27;11.50;99.90
23291;DHT22;11814;44.686;10.842;2023-02-23T00:16:56;11.50;99.90
23291;DHT22;11814;44.686;10.842;2023-02-23T00:19:23;11.40;99.90
23291;DHT22;11814;44.686;10.842;2023-02-23T00:21:49;11.40;99.90
23291;DHT22;11814;44.686;10.842;2023-02-23T00:24:16;11.40;99.90
23291;DHT22;11814;44.686;10.842;2023-02-23T00:26:51;11.40;99.90
23291;DHT22;11814;44.686;10.842;2023-02-23T00:29:18;11.40;99.90
23291;DHT22;11814;44.686;10.842;2023-02-23T00:31:46;11.30;99.90
23291;DHT22;11814;44.686;10.842;2023-02-23T00:34:14;11.30;99.90
23291;DHT22;11814;44.686;10.842;2023-02-23T00:36:41;11.20;99.90
23291;DHT22;11814;44.686;10.842;2023-02-23T00:39:10;11.20;99.90
23291;DHT22;11814;44.686;10.842;2023-02-23T00:41:44;11.20;99.90
23291;DHT22;11814;44.686;10.842;2023-02-23T00:44:11;11.20;99.90
23291;DHT22;11814;44.686;10.842;2023-02-23T00:46:40;11.20;99.90
23291;DHT22;11814;44.686;10.842;2023-02-23T00:49:09;11.20;99.90
23291;DHT22;11814;44.686;10.842;2023-02-23T00:51:36;11.10;99.90
23291;DHT22;11814;44.686;10.842;2023-02-23T00:54:02;11.00;99.90
23291;DHT22;11814;44.686;10.842;2023-02-23T00:56:28;11.00;99.90
23291;DHT22;11814;44.686;10.842;2023-02-23T00:58:54;11.00;99.90
23291;DHT22;11814;44.686;10.842;2023-02-23T01:01:23;10.90;99.90
23291;DHT22;11814;44.686;10.842;2023-02-23T01:03:49;10.90;99.90
23291;DHT22;11814;44.686;10.842;2023-02-23T01:06:18;10.90;99.90
23291;DHT22;11814;44.686;10.842;2023-02-23T01:08:46;10.90;99.90
23291;DHT22;11814;44.686;10.842;2023-02-23T01:11:17;10.90;99.90
23291;DHT22;11814;44.686;10.842;2023-02-23T01:13:46;10.90;99.90
23291;DHT22;11814;44.686;10.842;2023-02-23T01:16:15;10.90;99.90
23291;DHT22;11814;44.686;10.842;2023-02-23T01:18:45;10.90;99.90
23291;DHT22;11814;44.686;10.842;2023-02-23T01:21:23;10.90;99.90
23291;DHT22;11814;44.686;10.842;2023-02-23T01:23:50;10.90;99.90
23291;DHT22;11814;44.686;10.842;2023-02-23T01:26:32;10.90;99.90
23291;DHT22;11814;44.686;10.842;2023-02-23T01:29:00;10.90;99.90
23291;DHT22;11814;44.686;10.842;2023-02-23T01:31:28;10.90;99.90
23291;DHT22;11814;44.686;10.842;2023-02-23T01:33:59;11.00;99.90
23291;DHT22;11814;44.686;10.842;2023-02-23T01:36:26;10.90;99.90
23291;DHT22;11814;44.686;10.842;2023-02-23T01:38:53;11.00;99.90
23291;DHT22;11814;44.686;10.842;2023-02-23T01:41:22;11.00;99.90
23291;DHT22;11814;44.686;10.842;2023-02-23T01:46:34;11.00;99.90
23291;DHT22;11814;44.686;10.842;2023-02-23T01:49:02;11.10;99.90
23291;DHT22;11814;44.686;10.842;2023-02-23T01:51:33;11.10;99.90
23291;DHT22;11814;44.686;10.842;2023-02-23T01:54:19;11.10;99.90
23291;DHT22;11814;44.686;10.842;2023-02-23T01:56:48;11.10;99.90
23291;DHT22;11814;44.686;10.842;2023-02-23T01:59:29;11.20;99.90
23291;DHT22;11814;44.686;10.842;2023-02-23T02:01:58;11.20;99.90
23291;DHT22;11814;44.686;10.842;2023-02-23T02:04:24;11.20;99.90
23291;DHT22;11814;44.686;10.842;2023-02-23T02:06:52;11.20;99.90
23291;DHT22;11814;44.686;10.842;2023-02-23T02:09:21;11.30;99.90
23291;DHT22;11814;44.686;10.842;2023-02-23T02:11:50;11.30;99.90
23291;DHT22;11814;44.686;10.842;2023-02-23T02:14:26;11.30;99.90
23291;DHT22;11814;44.686;10.842;2023-02-23T02:22:35;11.30;99.90
23291;DHT22;11814;44.686;10.842;2023-02-23T02:39:14;11.20;99.90
23291;DHT22;11814;44.686;10.842;2023-02-23T02:44:57;11.10;99.90
23291;DHT22;11814;44.686;10.842;2023-02-23T02:47:33;11.10;99.90
23291;DHT22;11814;44.686;10.842;2023-02-23T02:50:05;11.10;99.90
23291;DHT22;11814;44.686;10.842;2023-02-23T02:52:54;11.00;99.90
23291;DHT22;11814;44.686;10.842;2023-02-23T02:55:25;11.00;99.90
23291;DHT22;11814;44.686;10.842;2023-02-23T02:57:56;10.90;99.90
23291;DHT22;11814;44.686;10.842;2023-02-23T03:00:28;10.90;99.90
23291;DHT22;11814;44.686;10.842;2023-02-23T03:03:41;10.90;99.90
23291;DHT22;11814;44.686;10.842;2023-02-23T03:06:30;11.00;99.90
23291;DHT22;11814;44.686;10.842;2023-02-23T03:09:35;11.00;99.90
23291;DHT22;11814;44.686;10.842;2023-02-23T03:19:06;11.00;99.90
23291;DHT22;11814;44.686;10.842;2023-02-23T03:21:58;11.00;99.90
23291;DHT22;11814;44.686;10.842;2023-02-23T03:27:53;11.00;99.90
23291;DHT22;11814;44.686;10.842;2023-02-23T03:34:07;10.90;99.90
23291;DHT22;11814;44.686;10.842;2023-02-23T03:37:13;10.90;99.90
23291;DHT22;11814;44.686;10.842;2023-02-23T03:40:22;11.00;99.90
23291;DHT22;11814;44.686;10.842;2023-02-23T03:43:11;10.90;99.90
23291;DHT22;11814;44.686;10.842;2023-02-23T03:45:57;10.90;99.90
23291;DHT22;11814;44.686;10.842;2023-02-23T03:48:45;10.90;99.90
23291;DHT22;11814;44.686;10.842;2023-02-23T03:51:33;10.80;99.90
23291;DHT22;11814;44.686;10.842;2023-02-23T03:54:29;10.80;99.90
23291;DHT22;11814;44.686;10.842;2023-02-23T03:57:17;10.70;99.90
23291;DHT22;11814;44.686;10.842;2023-02-23T04:00:09;10.70;99.90
23291;DHT22;11814;44.686;10.842;2023-02-23T04:02:55;10.80;99.90
23291;DHT22;11814;44.686;10.842;2023-02-23T04:05:41;10.70;99.90
23291;DHT22;11814;44.686;10.842;2023-02-23T04:08:32;10.70;99.90
23291;DHT22;11814;44.686;10.842;2023-02-23T04:11:33;10.70;99.90
23291;DHT22;11814;44.686;10.842;2023-02-23T04:17:24;10.60;99.90
23291;DHT22;11814;44.686;10.842;2023-02-23T04:19:53;10.60;99.90
23291;DHT22;11814;44.686;10.842;2023-02-23T04:22:19;10.60;99.90
23291;DHT22;11814;44.686;10.842;2023-02-23T04:24:45;10.60;99.90
23291;DHT22;11814;44.686;10.842;2023-02-23T04:27:11;10.70;99.90
23291;DHT22;11814;44.686;10.842;2023-02-23T04:29:37;10.70;99.90
23291;DHT22;11814;44.686;10.842;2023-02-23T04:32:03;10.70;99.90
23291;DHT22;11814;44.686;10.842;2023-02-23T04:34:29;10.60;99.90
23291;DHT22;11814;44.686;10.842;2023-02-23T04:36:55;10.60;99.90
23291;DHT22;11814;44.686;10.842;2023-02-23T04:39:20;10.60;99.90
23291;DHT22;11814;44.686;10.842;2023-02-23T04:41:46;10.60;99.90
23291;DHT22;11814;44.686;10.842;2023-02-23T04:44:15;10.60;99.90
23291;DHT22;11814;44.686;10.842;2023-02-23T04:46:41;10.50;99.90
23291;DHT22;11814;44.686;10.842;2023-02-23T04:49:07;10.50;99.90
23291;DHT22;11814;44.686;10.842;2023-02-23T04:51:33;10.50;99.90
23291;DHT22;11814;44.686;10.842;2023-02-23T04:54:01;10.50;99.90
23291;DHT22;11814;44.686;10.842;2023-02-23T04:56:28;10.40;99.90
23291;DHT22;11814;44.686;10.842;2023-02-23T04:58:54;10.40;99.90
23291;DHT22;11814;44.686;10.842;2023-02-23T05:01:19;10.40;99.90
23291;DHT22;11814;44.686;10.842;2023-02-23T05:03:48;10.50;99.90
23291;DHT22;11814;44.686;10.842;2023-02-23T05:06:15;10.50;99.90
23291;DHT22;11814;44.686;10.842;2023-02-23T05:08:41;10.50;99.90
23291;DHT22;11814;44.686;10.842;2023-02-23T05:11:07;10.50;99.90
23291;DHT22;11814;44.686;10.842;2023-02-23T05:13:33;10.50;99.90
23291;DHT22;11814;44.686;10.842;2023-02-23T05:15:59;10.50;99.90
23291;DHT22;11814;44.686;10.842;2023-02-23T05:18:25;10.50;99.90
23291;DHT22;11814;44.686;10.842;2023-02-23T05:20:52;10.60;99.90
23291;DHT22;11814;44.686;10.842;2023-02-23T05:23:19;10.60;99.90
23291;DHT22;11814;44.686;10.842;2023-02-23T05:25:45;10.60;99.90
23291;DHT22;11814;44.686;10.842;2023-02-23T05:28:11;10.60;99.90
23291;DHT22;11814;44.686;10.842;2023-02-23T05:30:37;10.60;99.90
23291;DHT22;11814;44.686;10.842;2023-02-23T05:33:02;10.60;99.90
23291;DHT22;11814;44.686;10.842;2023-02-23T05:35:28;10.60;99.90
23291;DHT22;11814;44.686;10.842;2023-02-23T05:37:54;10.60;99.90
23291;DHT22;11814;44.686;10.842;2023-02-23T05:40:20;10.50;99.90
23291;DHT22;11814;44.686;10.842;2023-02-23T05:42:46;10.60;99.90
23291;DHT22;11814;44.686;10.842;2023-02-23T05:45:12;10.60;99.90
23291;DHT22;11814;44.686;10.842;2023-02-23T05:47:38;10.60;99.90
23291;DHT22;11814;44.686;10.842;2023-02-23T05:50:05;10.60;99.90
23291;DHT22;11814;44.686;10.842;2023-02-23T05:52:31;10.60;99.90
23291;DHT22;11814;44.686;10.842;2023-02-23T05:54:57;10.70;99.90
23291;DHT22;11814;44.686;10.842;2023-02-23T05:57:23;10.70;99.90
23291;DHT22;11814;44.686;10.842;2023-02-23T05:59:49;10.60;99.90
23291;DHT22;11814;44.686;10.842;2023-02-23T06:02:14;10.70;99.90
23291;DHT22;11814;44.686;10.842;2023-02-23T06:04:40;10.60;99.90
23291;DHT22;11814;44.686;10.842;2023-02-23T06:07:06;10.60;99.90
23291;DHT22;11814;44.686;10.842;2023-02-23T06:09:32;10.50;99.90
23291;DHT22;11814;44.686;10.842;2023-02-23T06:11:58;10.50;99.90
23291;DHT22;11814;44.686;10.842;2023-02-23T06:14:25;10.50;99.90
23291;DHT22;11814;44.686;10.842;2023-02-23T06:16:51;10.50;99.90
23291;DHT22;11814;44.686;10.842;2023-02-23T06:19:17;10.40;99.90
23291;DHT22;11814;44.686;10.842;2023-02-23T06:21:42;10.40;99.90
23291;DHT22;11814;44.686;10.842;2023-02-23T06:24:09;10.50;99.90
23291;DHT22;11814;44.686;10.842;2023-02-23T06:26:36;10.50;99.90
23291;DHT22;11814;44.686;10.842;2023-02-23T06:29:02;10.50;99.90
23291;DHT22;11814;44.686;10.842;2023-02-23T06:31:28;10.50;99.90
23291;DHT22;11814;44.686;10.842;2023-02-23T06:33:53;10.50;99.90
23291;DHT22;11814;44.686;10.842;2023-02-23T06:36:19;10.50;99.90
23291;DHT22;11814;44.686;10.842;2023-02-23T06:38:45;10.50;99.90
23291;DHT22;11814;44.686;10.842;2023-02-23T06:41:11;10.50;99.90
23291;DHT22;11814;44.686;10.842;2023-02-23T06:43:37;10.50;99.90
23291;DHT22;11814;44.686;10.842;2023-02-23T06:46:03;10.40;99.90
23291;DHT22;11814;44.686;10.842;2023-02-23T06:48:29;10.50;99.90
23291;DHT22;11814;44.686;10.842;2023-02-23T06:50:57;10.50;99.90
23291;DHT22;11814;44.686;10.842;2023-02-23T06:53:23;10.50;99.90
23291;DHT22;11814;44.686;10.842;2023-02-23T06:55:49;10.50;99.90
23291;DHT22;11814;44.686;10.842;2023-02-23T06:58:15;10.50;99.90
23291;DHT22;11814;44.686;10.842;2023-02-23T07:00:42;10.60;99.90
23291;DHT22;11814;44.686;10.842;2023-02-23T07:03:08;10.60;99.90
23291;DHT22;11814;44.686;10.842;2023-02-23T07:05:35;10.60;99.90
23291;DHT22;11814;44.686;10.842;2023-02-23T07:08:01;10.60;99.90
23291;DHT22;11814;44.686;10.842;2023-02-23T07:10:28;10.60;99.90
23291;DHT22;11814;44.686;10.842;2023-02-23T07:12:54;10.60;99.90
23291;DHT22;11814;44.686;10.842;2023-02-23T07:15:19;10.60;99.90
23291;DHT22;11814;44.686;10.842;2023-02-23T07:17:46;10.60;99.90
23291;DHT22;11814;44.686;10.842;2023-02-23T07:20:14;10.70;99.90
23291;DHT22;11814;44.686;10.842;2023-02-23T07:22:41;10.70;99.90
23291;DHT22;11814;44.686;10.842;2023-02-23T07:25:07;10.80;99.90
23291;DHT22;11814;44.686;10.842;2023-02-23T07:27:34;10.80;99.90
23291;DHT22;11814;44.686;10.842;2023-02-23T07:30:00;10.70;99.90
23291;DHT22;11814;44.686;10.842;2023-02-23T07:32:27;10.90;99.90
23291;DHT22;11814;44.686;10.842;2023-02-23T07:34:53;10.90;99.90
23291;DHT22;11814;44.686;10.842;2023-02-23T07:37:19;10.90;99.90
23291;DHT22;11814;44.686;10.842;2023-02-23T07:39:46;10.90;99.90
23291;DHT22;11814;44.686;10.842;2023-02-23T07:42:12;10.90;99.90
23291;DHT22;11814;44.686;10.842;2023-02-23T07:44:38;11.00;99.90
23291;DHT22;11814;44.686;10.842;2023-02-23T07:47:05;11.00;99.90
23291;DHT22;11814;44.686;10.842;2023-02-23T07:49:31;11.10;99.90
23291;DHT22;11814;44.686;10.842;2023-02-23T07:51:58;11.10;99.90
23291;DHT22;11814;44.686;10.842;2023-02-23T07:54:24;11.10;99.90
23291;DHT22;11814;44.686;10.842;2023-02-23T07:56:51;11.20;99.90
23291;DHT22;11814;44.686;10.842;2023-02-23T07:59:17;11.20;99.90
23291;DHT22;11814;44.686;10.842;2023-02-23T08:01:43;11.20;99.90
23291;DHT22;11814;44.686;10.842;2023-02-23T08:04:09;11.30;99.90
23291;DHT22;11814;44.686;10.842;2023-02-23T08:06:35;11.30;99.90
23291;DHT22;11814;44.686;10.842;2023-02-23T08:09:02;11.30;99.90
23291;DHT22;11814;44.686;10.842;2023-02-23T08:11:28;11.40;99.90
23291;DHT22;11814;44.686;10.842;2023-02-23T08:13:55;11.40;99.90
23291;DHT22;11814;44.686;10.842;2023-02-23T08:16:28;11.40;99.90
23291;DHT22;11814;44.686;10.842;2023-02-23T08:18:59;11.50;99.90
23291;DHT22;11814;44.686;10.842;2023-02-23T08:21:26;11.50;99.90
23291;DHT22;11814;44.686;10.842;2023-02-23T08:23:54;11.50;99.90
23291;DHT22;11814;44.686;10.842;2023-02-23T08:26:20;11.50;99.90
23291;DHT22;11814;44.686;10.842;2023-02-23T08:28:48;11.50;99.90
23291;DHT22;11814;44.686;10.842;2023-02-23T08:31:14;11.60;99.90
23291;DHT22;11814;44.686;10.842;2023-02-23T08:33:45;11.60;99.90
23291;DHT22;11814;44.686;10.842;2023-02-23T08:36:11;11.60;99.90
23291;DHT22;11814;44.686;10.842;2023-02-23T08:38:36;11.60;99.90
23291;DHT22;11814;44.686;10.842;2023-02-23T08:41:03;11.70;99.90
23291;DHT22;11814;44.686;10.842;2023-02-23T08:43:29;11.70;99.90
23291;DHT22;11814;44.686;10.842;2023-02-23T08:45:55;11.80;99.90
23291;DHT22;11814;44.686;10.842;2023-02-23T08:48:21;11.80;99.90
23291;DHT22;11814;44.686;10.842;2023-02-23T08:50:47;11.80;99.90
23291;DHT22;11814;44.686;10.842;2023-02-23T08:53:15;11.90;99.90
23291;DHT22;11814;44.686;10.842;2023-02-23T08:55:41;11.90;99.90
23291;DHT22;11814;44.686;10.842;2023-02-23T08:58:07;11.90;99.90
23291;DHT22;11814;44.686;10.842;2023-02-23T09:00:35;12.00;99.90
23291;DHT22;11814;44.686;10.842;2023-02-23T09:03:03;12.00;99.90
23291;DHT22;11814;44.686;10.842;2023-02-23T09:05:30;12.10;99.90
23291;DHT22;11814;44.686;10.842;2023-02-23T09:07:56;12.10;99.90
23291;DHT22;11814;44.686;10.842;2023-02-23T09:10:22;12.20;99.90
23291;DHT22;11814;44.686;10.842;2023-02-23T09:12:52;12.20;99.90
23291;DHT22;11814;44.686;10.842;2023-02-23T09:15:18;12.20;99.90
23291;DHT22;11814;44.686;10.842;2023-02-23T09:17:45;12.20;99.90
23291;DHT22;11814;44.686;10.842;2023-02-23T09:20:12;12.20;99.90
23291;DHT22;11814;44.686;10.842;2023-02-23T09:22:40;12.30;99.90
23291;DHT22;11814;44.686;10.842;2023-02-23T09:25:09;12.30;99.90
23291;DHT22;11814;44.686;10.842;2023-02-23T09:27:37;12.30;99.90
23291;DHT22;11814;44.686;10.842;2023-02-23T09:30:03;12.30;99.90
23291;DHT22;11814;44.686;10.842;2023-02-23T09:32:29;12.40;99.90
23291;DHT22;11814;44.686;10.842;2023-02-23T09:34:55;12.40;99.90
23291;DHT22;11814;44.686;10.842;2023-02-23T09:37:20;12.50;99.90
23291;DHT22;11814;44.686;10.842;2023-02-23T09:39:46;12.50;99.90
23291;DHT22;11814;44.686;10.842;2023-02-23T09:42:39;12.50;99.90
23291;DHT22;11814;44.686;10.842;2023-02-23T09:50:28;12.60;99.90
23291;DHT22;11814;44.686;10.842;2023-02-23T09:56:33;12.70;99.90
23291;DHT22;11814;44.686;10.842;2023-02-23T09:59:02;12.80;99.90
23291;DHT22;11814;44.686;10.842;2023-02-23T10:06:44;12.90;99.90
23291;DHT22;11814;44.686;10.842;2023-02-23T10:20:42;13.30;99.90
23291;DHT22;11814;44.686;10.842;2023-02-23T10:23:08;13.30;99.90
23291;DHT22;11814;44.686;10.842;2023-02-23T10:25:43;13.30;99.90
23291;DHT22;11814;44.686;10.842;2023-02-23T10:28:20;13.30;99.90
23291;DHT22;11814;44.686;10.842;2023-02-23T10:30:48;13.40;99.90
23291;DHT22;11814;44.686;10.842;2023-02-23T10:33:32;13.40;99.90
23291;DHT22;11814;44.686;10.842;2023-02-23T10:36:30;13.50;99.90
23291;DHT22;11814;44.686;10.842;2023-02-23T10:38:58;13.50;99.90
23291;DHT22;11814;44.686;10.842;2023-02-23T10:41:24;13.60;99.90
23291;DHT22;11814;44.686;10.842;2023-02-23T10:43:49;13.70;99.90
23291;DHT22;11814;44.686;10.842;2023-02-23T10:46:22;13.60;99.90
23291;DHT22;11814;44.686;10.842;2023-02-23T10:48:51;13.60;99.90
23291;DHT22;11814;44.686;10.842;2023-02-23T10:51:26;13.60;99.90
23291;DHT22;11814;44.686;10.842;2023-02-23T10:53:55;13.70;99.90
23291;DHT22;11814;44.686;10.842;2023-02-23T10:56:21;13.70;99.90
23291;DHT22;11814;44.686;10.842;2023-02-23T11:01:30;13.70;99.90
23291;DHT22;11814;44.686;10.842;2023-02-23T11:04:32;13.80;99.90
23291;DHT22;11814;44.686;10.842;2023-02-23T11:07:25;13.90;99.90
23291;DHT22;11814;44.686;10.842;2023-02-23T11:09:58;13.90;99.90
23291;DHT22;11814;44.686;10.842;2023-02-23T11:12:37;14.00;99.90
23291;DHT22;11814;44.686;10.842;2023-02-23T11:18:03;14.10;99.90
23291;DHT22;11814;44.686;10.842;2023-02-23T11:20:38;14.20;99.90
23291;DHT22;11814;44.686;10.842;2023-02-23T11:23:33;14.20;99.90
23291;DHT22;11814;44.686;10.842;2023-02-23T11:26:02;14.30;99.90
23291;DHT22;11814;44.686;10.842;2023-02-23T11:28:33;14.30;99.90
23291;DHT22;11814;44.686;10.842;2023-02-23T11:31:03;14.30;99.90
23291;DHT22;11814;44.686;10.842;2023-02-23T11:33:34;14.40;99.90
23291;DHT22;11814;44.686;10.842;2023-02-23T11:36:31;14.40;99.90
23291;DHT22;11814;44.686;10.842;2023-02-23T11:39:20;14.50;99.90
23291;DHT22;11814;44.686;10.842;2023-02-23T11:44:38;14.50;99.90
23291;DHT22;11814;44.686;10.842;2023-02-23T11:47:04;14.40;99.90
23291;DHT22;11814;44.686;10.842;2023-02-23T11:49:32;14.40;99.90
23291;DHT22;11814;44.686;10.842;2023-02-23T11:52:00;14.50;99.90
23291;DHT22;11814;44.686;10.842;2023-02-23T11:56:52;14.50;99.90
23291;DHT22;11814;44.686;10.842;2023-02-23T12:05:06;14.60;99.90
23291;DHT22;11814;44.686;10.842;2023-02-23T12:07:39;14.60;99.90
23291;DHT22;11814;44.686;10.842;2023-02-23T12:10:36;14.60;99.90
23291;DHT22;11814;44.686;10.842;2023-02-23T12:19:10;14.50;99.90
23291;DHT22;11814;44.686;10.842;2023-02-23T12:22:02;14.60;99.90
23291;DHT22;11814;44.686;10.842;2023-02-23T12:24:53;14.60;99.90
23291;DHT22;11814;44.686;10.842;2023-02-23T12:27:34;14.60;99.90
23291;DHT22;11814;44.686;10.842;2023-02-23T12:30:26;14.70;99.90
23291;DHT22;11814;44.686;10.842;2023-02-23T12:33:25;14.60;99.90
23291;DHT22;11814;44.686;10.842;2023-02-23T12:39:15;14.70;99.90
23291;DHT22;11814;44.686;10.842;2023-02-23T12:42:05;14.80;99.90
23291;DHT22;11814;44.686;10.842;2023-02-23T12:44:48;14.90;99.90
23291;DHT22;11814;44.686;10.842;2023-02-23T12:47:31;14.90;99.90
23291;DHT22;11814;44.686;10.842;2023-02-23T12:49:59;15.00;99.90
23291;DHT22;11814;44.686;10.842;2023-02-23T12:52:35;15.00;99.90
23291;DHT22;11814;44.686;10.842;2023-02-23T12:55:02;15.00;99.90
23291;DHT22;11814;44.686;10.842;2023-02-23T12:57:39;15.00;99.90
23291;DHT22;11814;44.686;10.842;2023-02-23T13:15:01;15.00;99.90
23291;DHT22;11814;44.686;10.842;2023-02-23T13:28:54;14.90;99.90
23291;DHT22;11814;44.686;10.842;2023-02-23T13:33:49;14.80;99.90
23291;DHT22;11814;44.686;10.842;2023-02-23T13:36:16;14.80;99.90
23291;DHT22;11814;44.686;10.842;2023-02-23T13:49:56;14.90;99.90
23291;DHT22;11814;44.686;10.842;2023-02-23T13:52:36;14.90;99.90
23291;DHT22;11814;44.686;10.842;2023-02-23T13:58:09;15.00;99.90
23291;DHT22;11814;44.686;10.842;2023-02-23T14:00:36;15.00;99.90
23291;DHT22;11814;44.686;10.842;2023-02-23T14:03:06;15.00;99.90
23291;DHT22;11814;44.686;10.842;2023-02-23T14:05:41;15.00;99.90
23291;DHT22;11814;44.686;10.842;2023-02-23T14:08:24;15.00;99.90
23291;DHT22;11814;44.686;10.842;2023-02-23T14:10:52;15.00;99.90
23291;DHT22;11814;44.686;10.842;2023-02-23T14:13:32;15.00;99.90
23291;DHT22;11814;44.686;10.842;2023-02-23T14:16:18;15.00;99.90
23291;DHT22;11814;44.686;10.842;2023-02-23T14:19:04;14.90;99.90
23291;DHT22;11814;44.686;10.842;2023-02-23T14:24:16;14.80;99.90
23291;DHT22;11814;44.686;10.842;2023-02-23T14:26:45;14.80;99.90
23291;DHT22;11814;44.686;10.842;2023-02-23T14:29:27;14.80;99.90
23291;DHT22;11814;44.686;10.842;2023-02-23T14:34:55;14.70;99.90
23291;DHT22;11814;44.686;10.842;2023-02-23T14:37:31;14.70;99.90
23291;DHT22;11814;44.686;10.842;2023-02-23T14:40:16;14.70;99.90
23291;DHT22;11814;44.686;10.842;2023-02-23T14:42:46;14.60;99.90
23291;DHT22;11814;44.686;10.842;2023-02-23T14:45:25;14.60;99.90
23291;DHT22;11814;44.686;10.842;2023-02-23T14:48:00;14.60;99.90
23291;DHT22;11814;44.686;10.842;2023-02-23T14:50:34;14.60;99.90
23291;DHT22;11814;44.686;10.842;2023-02-23T14:53:02;14.60;99.90
23291;DHT22;11814;44.686;10.842;2023-02-23T14:55:31;14.60;99.90
23291;DHT22;11814;44.686;10.842;2023-02-23T14:58:17;14.60;99.90
23291;DHT22;11814;44.686;10.842;2023-02-23T15:00:44;14.60;99.90
23291;DHT22;11814;44.686;10.842;2023-02-23T15:03:10;14.60;99.90
23291;DHT22;11814;44.686;10.842;2023-02-23T15:08:21;14.50;99.90
23291;DHT22;11814;44.686;10.842;2023-02-23T15:13:51;14.60;99.90
23291;DHT22;11814;44.686;10.842;2023-02-23T15:16:23;14.60;99.90
23291;DHT22;11814;44.686;10.842;2023-02-23T15:18:51;14.50;99.90
23291;DHT22;11814;44.686;10.842;2023-02-23T15:21:20;14.60;99.90
23291;DHT22;11814;44.686;10.842;2023-02-23T15:24:32;14.60;99.90
23291;DHT22;11814;44.686;10.842;2023-02-23T15:26:53;14.50;99.90
23291;DHT22;11814;44.686;10.842;2023-02-23T15:29:22;14.50;99.90
23291;DHT22;11814;44.686;10.842;2023-02-23T15:31:50;14.50;99.90
23291;DHT22;11814;44.686;10.842;2023-02-23T15:34:23;14.50;99.90
23291;DHT22;11814;44.686;10.842;2023-02-23T15:36:56;14.50;99.90
23291;DHT22;11814;44.686;10.842;2023-02-23T15:39:45;14.50;99.90
23291;DHT22;11814;44.686;10.842;2023-02-23T15:42:20;14.50;99.90
23291;DHT22;11814;44.686;10.842;2023-02-23T15:44:56;14.50;99.90
23291;DHT22;11814;44.686;10.842;2023-02-23T15:47:24;14.50;99.90
23291;DHT22;11814;44.686;10.842;2023-02-23T15:52:59;14.40;99.90
23291;DHT22;11814;44.686;10.842;2023-02-23T15:55:31;14.40;99.90
23291;DHT22;11814;44.686;10.842;2023-02-23T15:58:19;14.40;99.90
23291;DHT22;11814;44.686;10.842;2023-02-23T16:00:53;14.40;99.90
23291;DHT22;11814;44.686;10.842;2023-02-23T16:03:34;14.40;99.90
23291;DHT22;11814;44.686;10.842;2023-02-23T16:06:06;14.40;99.90
23291;DHT22;11814;44.686;10.842;2023-02-23T16:08:34;14.40;99.90
23291;DHT22;11814;44.686;10.842;2023-02-23T16:11:11;14.40;99.90
23291;DHT22;11814;44.686;10.842;2023-02-23T16:13:44;14.30;99.90
23291;DHT22;11814;44.686;10.842;2023-02-23T16:16:12;14.30;99.90
23291;DHT22;11814;44.686;10.842;2023-02-23T16:18:45;14.30;99.90
23291;DHT22;11814;44.686;10.842;2023-02-23T16:21:19;14.20;99.90
23291;DHT22;11814;44.686;10.842;2023-02-23T16:23:49;14.20;99.90
23291;DHT22;11814;44.686;10.842;2023-02-23T16:28:53;14.20;99.90
23291;DHT22;11814;44.686;10.842;2023-02-23T16:31:24;14.20;99.90
23291;DHT22;11814;44.686;10.842;2023-02-23T16:33:54;14.10;99.90
23291;DHT22;11814;44.686;10.842;2023-02-23T16:36:33;14.10;99.90
23291;DHT22;11814;44.686;10.842;2023-02-23T16:39:02;14.00;99.90
23291;DHT22;11814;44.686;10.842;2023-02-23T16:41:32;14.00;99.90
23291;DHT22;11814;44.686;10.842;2023-02-23T16:44:00;14.00;99.90
23291;DHT22;11814;44.686;10.842;2023-02-23T16:46:32;14.00;99.90
23291;DHT22;11814;44.686;10.842;2023-02-23T16:49:14;14.00;99.90
23291;DHT22;11814;44.686;10.842;2023-02-23T16:51:40;14.00;99.90
23291;DHT22;11814;44.686;10.842;2023-02-23T16:54:06;14.00;99.90
23291;DHT22;11814;44.686;10.842;2023-02-23T16:56:33;13.90;99.90
23291;DHT22;11814;44.686;10.842;2023-02-23T16:59:01;13.90;99.90
23291;DHT22;11814;44.686;10.842;2023-02-23T17:01:27;13.90;99.90
23291;DHT22;11814;44.686;10.842;2023-02-23T17:03:53;13.80;99.90
23291;DHT22;11814;44.686;10.842;2023-02-23T17:06:20;13.80;99.90
23291;DHT22;11814;44.686;10.842;2023-02-23T17:08:46;13.80;99.90
23291;DHT22;11814;44.686;10.842;2023-02-23T17:11:12;13.70;99.90
23291;DHT22;11814;44.686;10.842;2023-02-23T17:13:38;13.70;99.90
23291;DHT22;11814;44.686;10.842;2023-02-23T17:16:06;13.70;99.90
23291;DHT22;11814;44.686;10.842;2023-02-23T17:18:35;13.70;99.90
23291;DHT22;11814;44.686;10.842;2023-02-23T17:21:06;13.60;99.90
23291;DHT22;11814;44.686;10.842;2023-02-23T17:23:35;13.60;99.90
23291;DHT22;11814;44.686;10.842;2023-02-23T17:26:20;13.50;99.90
23291;DHT22;11814;44.686;10.842;2023-02-23T17:28:46;13.50;99.90
23291;DHT22;11814;44.686;10.842;2023-02-23T17:31:12;13.50;99.90
23291;DHT22;11814;44.686;10.842;2023-02-23T17:33:40;13.50;99.90
23291;DHT22;11814;44.686;10.842;2023-02-23T17:36:09;13.50;99.90
23291;DHT22;11814;44.686;10.842;2023-02-23T17:38:35;13.50;99.90
23291;DHT22;11814;44.686;10.842;2023-02-23T17:41:08;13.50;99.90
23291;DHT22;11814;44.686;10.842;2023-02-23T17:43:35;13.50;99.90
23291;DHT22;11814;44.686;10.842;2023-02-23T17:46:02;13.40;99.90
23291;DHT22;11814;44.686;10.842;2023-02-23T17:48:28;13.30;99.90
23291;DHT22;11814;44.686;10.842;2023-02-23T17:51:03;13.30;99.90
23291;DHT22;11814;44.686;10.842;2023-02-23T17:53:29;13.30;99.90
23291;DHT22;11814;44.686;10.842;2023-02-23T17:55:56;13.30;99.90
23291;DHT22;11814;44.686;10.842;2023-02-23T17:58:22;13.20;99.90
23291;DHT22;11814;44.686;10.842;2023-02-23T18:00:52;13.20;99.90
23291;DHT22;11814;44.686;10.842;2023-02-23T18:03:18;13.20;99.90
23291;DHT22;11814;44.686;10.842;2023-02-23T18:05:43;13.20;99.90
23291;DHT22;11814;44.686;10.842;2023-02-23T18:08:10;13.20;99.90
23291;DHT22;11814;44.686;10.842;2023-02-23T18:10:36;13.20;99.90
23291;DHT22;11814;44.686;10.842;2023-02-23T18:13:03;13.20;99.90
23291;DHT22;11814;44.686;10.842;2023-02-23T18:15:29;13.20;99.90